WJA559 CYUL-CYYC
Flight info
| Callsign | WJA559 |
|---|---|
| Flight time | 4h 12m |
| Altitude | 36000 |
| Route | KESKA DCT BIPKO DCT IPSAK DCT OMEGI DCT RADEN DCT SPALD DCT LACTO DCT LEATS DCT ILADA BIRKO6 |
| Aircraft | B38M/M-SDE1FGHILORVWXY/HB1 |
Departure
| Time | 2026-05-04 00:09 |
|---|---|
| Airport | Montreal / Pierre Elliott Trudeau International Airport (CYUL) |
Arrival
| Time | 2026-05-04 04:21 |
|---|---|
| Airport | Calgary International Airport (CYYC) |
| Time | Latitude | Longitude | Altitude | Speed | Heading |
|---|---|---|---|---|---|
| 2026-05-03 23:37 | 45.45886 | -73.74544 | 107 ft | 0 kts | 178° |
| 2026-05-03 23:47 | 45.45887 | -73.74544 | 107 ft | 0 kts | 178° |
| 2026-05-03 23:52 | 45.45902 | -73.74545 | 106 ft | 4 kts | 178° |
| 2026-05-03 23:52 | 45.45923 | -73.74546 | 106 ft | 1 kts | 178° |
| 2026-05-03 23:52 | 45.45927 | -73.74546 | 106 ft | 0 kts | 178° |
| 2026-05-03 23:59 | 45.45926 | -73.74546 | 107 ft | 0 kts | 169° |
| 2026-05-04 00:00 | 45.45924 | -73.74544 | 107 ft | 1 kts | 148° |
| 2026-05-04 00:00 | 45.45924 | -73.74538 | 105 ft | 0 kts | 91° |
| 2026-05-04 00:00 | 45.45927 | -73.74534 | 106 ft | 1 kts | 49° |
| 2026-05-04 00:01 | 45.45948 | -73.74520 | 107 ft | 6 kts | 26° |
| 2026-05-04 00:01 | 45.45989 | -73.74457 | 106 ft | 11 kts | 63° |
| 2026-05-04 00:01 | 45.46025 | -73.74365 | 105 ft | 9 kts | 53° |
| 2026-05-04 00:01 | 45.46073 | -73.74288 | 105 ft | 12 kts | 48° |
| 2026-05-04 00:02 | 45.46127 | -73.74206 | 106 ft | 10 kts | 57° |
| 2026-05-04 00:02 | 45.46140 | -73.74109 | 107 ft | 11 kts | 86° |
| 2026-05-04 00:02 | 45.46173 | -73.74014 | 107 ft | 12 kts | 44° |
| 2026-05-04 00:02 | 45.46238 | -73.73929 | 107 ft | 14 kts | 43° |
| 2026-05-04 00:03 | 45.46312 | -73.73831 | 109 ft | 15 kts | 42° |
| 2026-05-04 00:03 | 45.46391 | -73.73728 | 109 ft | 16 kts | 43° |
| 2026-05-04 00:03 | 45.46476 | -73.73616 | 109 ft | 17 kts | 43° |
| 2026-05-04 00:03 | 45.46568 | -73.73496 | 111 ft | 19 kts | 43° |
| 2026-05-04 00:04 | 45.46657 | -73.73379 | 113 ft | 16 kts | 43° |
| 2026-05-04 00:04 | 45.46743 | -73.73266 | 115 ft | 17 kts | 43° |
| 2026-05-04 00:04 | 45.46835 | -73.73145 | 114 ft | 19 kts | 43° |
| 2026-05-04 00:04 | 45.46926 | -73.73026 | 118 ft | 17 kts | 42° |
| 2026-05-04 00:05 | 45.47014 | -73.72911 | 118 ft | 18 kts | 42° |
| 2026-05-04 00:05 | 45.47110 | -73.72785 | 118 ft | 20 kts | 42° |
| 2026-05-04 00:05 | 45.47203 | -73.72663 | 119 ft | 18 kts | 42° |
| 2026-05-04 00:05 | 45.47301 | -73.72535 | 120 ft | 20 kts | 43° |
| 2026-05-04 00:06 | 45.47397 | -73.72408 | 119 ft | 17 kts | 42° |
| 2026-05-04 00:06 | 45.47487 | -73.72291 | 120 ft | 18 kts | 43° |
| 2026-05-04 00:06 | 45.47585 | -73.72162 | 121 ft | 20 kts | 43° |
| 2026-05-04 00:06 | 45.47693 | -73.72022 | 123 ft | 21 kts | 43° |
| 2026-05-04 00:07 | 45.47780 | -73.71906 | 123 ft | 15 kts | 43° |
| 2026-05-04 00:07 | 45.47805 | -73.71805 | 125 ft | 11 kts | 114° |
| 2026-05-04 00:07 | 45.47763 | -73.71712 | 124 ft | 9 kts | 126° |
| 2026-05-04 00:07 | 45.47723 | -73.71646 | 127 ft | 9 kts | 136° |
| 2026-05-04 00:08 | 45.47693 | -73.71631 | 123 ft | 5 kts | 184° |
| 2026-05-04 00:08 | 45.47666 | -73.71651 | 125 ft | 0 kts | 219° |
| 2026-05-04 00:08 | 45.47659 | -73.71660 | 127 ft | 3 kts | 221° |
| 2026-05-04 00:08 | 45.47639 | -73.71686 | 126 ft | 5 kts | 223° |
| 2026-05-04 00:09 | 45.47478 | -73.71898 | 124 ft | 69 kts | 223° |
| 2026-05-04 00:09 | 45.46942 | -73.72604 | 119 ft | 138 kts | 223° |
| 2026-05-04 00:09 | 45.46098 | -73.73705 | 224 ft | 183 kts | 222° |
| 2026-05-04 00:09 | 45.45124 | -73.74991 | 864 ft | 199 kts | 225° |
| 2026-05-04 00:10 | 45.44037 | -73.76439 | 1429 ft | 228 kts | 225° |
| 2026-05-04 00:10 | 45.42885 | -73.78008 | 2445 ft | 231 kts | 226° |
| 2026-05-04 00:10 | 45.41691 | -73.79647 | 3166 ft | 244 kts | 226° |
| 2026-05-04 00:10 | 45.40433 | -73.81349 | 3961 ft | 251 kts | 228° |
| 2026-05-04 00:11 | 45.39529 | -73.83404 | 4949 ft | 245 kts | 258° |
| 2026-05-04 00:11 | 45.39487 | -73.85803 | 5854 ft | 246 kts | 280° |
| 2026-05-04 00:11 | 45.40054 | -73.88100 | 6734 ft | 249 kts | 298° |
| 2026-05-04 00:11 | 45.41190 | -73.89977 | 7625 ft | 254 kts | 317° |
| 2026-05-04 00:12 | 45.42535 | -73.91622 | 8499 ft | 256 kts | 316° |
| 2026-05-04 00:12 | 45.43888 | -73.93288 | 9368 ft | 259 kts | 316° |
| 2026-05-04 00:12 | 45.45264 | -73.94972 | 10143 ft | 262 kts | 317° |
| 2026-05-04 00:12 | 45.46683 | -73.96711 | 10590 ft | 278 kts | 317° |
| 2026-05-04 00:13 | 45.48195 | -73.98573 | 10943 ft | 295 kts | 317° |
| 2026-05-04 00:13 | 45.49785 | -74.00525 | 11401 ft | 307 kts | 317° |
| 2026-05-04 00:13 | 45.51403 | -74.02501 | 12069 ft | 311 kts | 317° |
| 2026-05-04 00:13 | 45.53058 | -74.04512 | 12811 ft | 315 kts | 317° |
| 2026-05-04 00:14 | 45.54736 | -74.06544 | 13549 ft | 318 kts | 318° |
| 2026-05-04 00:14 | 45.56433 | -74.08599 | 14186 ft | 322 kts | 318° |
| 2026-05-04 00:14 | 45.58150 | -74.10677 | 14872 ft | 324 kts | 318° |
| 2026-05-04 00:14 | 45.59878 | -74.12768 | 15538 ft | 327 kts | 318° |
| 2026-05-04 00:15 | 45.61558 | -74.14969 | 16193 ft | 329 kts | 309° |
| 2026-05-04 00:15 | 45.62916 | -74.17595 | 16849 ft | 331 kts | 306° |
| 2026-05-04 00:15 | 45.64290 | -74.20266 | 17457 ft | 334 kts | 306° |
| 2026-05-04 00:15 | 45.65665 | -74.22956 | 18099 ft | 337 kts | 306° |
| 2026-05-04 00:16 | 45.67050 | -74.25675 | 18621 ft | 340 kts | 306° |
| 2026-05-04 00:16 | 45.68441 | -74.28411 | 19172 ft | 342 kts | 306° |
| 2026-05-04 00:16 | 45.69848 | -74.31182 | 19676 ft | 345 kts | 306° |
| 2026-05-04 00:16 | 45.71252 | -74.33972 | 20187 ft | 348 kts | 303° |
| 2026-05-04 00:17 | 45.72213 | -74.37148 | 20711 ft | 351 kts | 284° |
| 2026-05-04 00:17 | 45.72561 | -74.40634 | 21187 ft | 356 kts | 279° |
| 2026-05-04 00:17 | 45.72855 | -74.44174 | 21675 ft | 359 kts | 279° |
| 2026-05-04 00:17 | 45.73130 | -74.47732 | 22186 ft | 362 kts | 278° |
| 2026-05-04 00:18 | 45.73394 | -74.51338 | 22661 ft | 365 kts | 278° |
| 2026-05-04 00:18 | 45.73650 | -74.54957 | 23141 ft | 367 kts | 278° |
| 2026-05-04 00:18 | 45.73904 | -74.58607 | 23609 ft | 369 kts | 278° |
| 2026-05-04 00:18 | 45.74156 | -74.62281 | 23979 ft | 372 kts | 278° |
| 2026-05-04 00:19 | 45.74409 | -74.65976 | 24365 ft | 374 kts | 277° |
| 2026-05-04 00:19 | 45.74662 | -74.69703 | 24757 ft | 377 kts | 277° |
| 2026-05-04 00:19 | 45.74916 | -74.73443 | 25130 ft | 379 kts | 277° |
| 2026-05-04 00:19 | 45.75169 | -74.77211 | 25498 ft | 381 kts | 277° |
| 2026-05-04 00:20 | 45.75423 | -74.81003 | 25858 ft | 384 kts | 277° |
| 2026-05-04 00:20 | 45.75681 | -74.84819 | 26209 ft | 386 kts | 278° |
| 2026-05-04 00:20 | 45.76226 | -74.88591 | 26554 ft | 387 kts | 284° |
| 2026-05-04 00:20 | 45.76818 | -74.92312 | 26875 ft | 390 kts | 283° |
| 2026-05-04 00:21 | 45.77400 | -74.96117 | 27235 ft | 392 kts | 283° |
| 2026-05-04 00:21 | 45.77970 | -74.99942 | 27572 ft | 394 kts | 283° |
| 2026-05-04 00:21 | 45.78538 | -75.03795 | 27893 ft | 397 kts | 283° |
| 2026-05-04 00:21 | 45.79107 | -75.07676 | 28213 ft | 399 kts | 283° |
| 2026-05-04 00:22 | 45.79701 | -75.11571 | 28522 ft | 401 kts | 283° |
| 2026-05-04 00:22 | 45.80299 | -75.15485 | 28836 ft | 403 kts | 283° |
| 2026-05-04 00:22 | 45.80898 | -75.19421 | 29140 ft | 405 kts | 283° |
| 2026-05-04 00:22 | 45.81498 | -75.23380 | 29440 ft | 408 kts | 283° |
| 2026-05-04 00:23 | 45.82101 | -75.27371 | 29730 ft | 410 kts | 283° |
| 2026-05-04 00:23 | 45.82705 | -75.31376 | 29985 ft | 412 kts | 283° |
| 2026-05-04 00:23 | 45.83309 | -75.35393 | 30267 ft | 413 kts | 283° |
| 2026-05-04 00:23 | 45.83914 | -75.39425 | 30485 ft | 415 kts | 283° |
| 2026-05-04 00:24 | 45.84521 | -75.43484 | 30706 ft | 417 kts | 283° |
| 2026-05-04 00:24 | 45.85129 | -75.47558 | 30927 ft | 419 kts | 282° |
| 2026-05-04 00:24 | 45.85739 | -75.51653 | 31139 ft | 421 kts | 282° |
| 2026-05-04 00:24 | 45.86350 | -75.55768 | 31372 ft | 422 kts | 282° |
| 2026-05-04 00:25 | 45.86952 | -75.59839 | 31657 ft | 422 kts | 282° |
| 2026-05-04 00:25 | 45.87561 | -75.63961 | 31964 ft | 422 kts | 282° |
| 2026-05-04 00:25 | 45.88168 | -75.68083 | 32237 ft | 422 kts | 282° |
| 2026-05-04 00:25 | 45.88773 | -75.72205 | 32542 ft | 422 kts | 282° |
| 2026-05-04 00:26 | 45.89377 | -75.76324 | 32832 ft | 422 kts | 282° |
| 2026-05-04 00:26 | 45.89981 | -75.80460 | 33100 ft | 422 kts | 282° |
| 2026-05-04 00:26 | 45.90581 | -75.84575 | 33364 ft | 422 kts | 282° |
| 2026-05-04 00:26 | 45.91182 | -75.88710 | 33632 ft | 422 kts | 282° |
| 2026-05-04 00:27 | 45.91781 | -75.92841 | 33854 ft | 423 kts | 281° |
| 2026-05-04 00:27 | 45.92381 | -75.96987 | 34049 ft | 423 kts | 281° |
| 2026-05-04 00:27 | 45.93097 | -76.01078 | 34220 ft | 424 kts | 291° |
| 2026-05-04 00:27 | 45.94524 | -76.04775 | 34441 ft | 425 kts | 305° |
| 2026-05-04 00:28 | 45.96311 | -76.08179 | 34559 ft | 428 kts | 305° |
| 2026-05-04 00:28 | 45.98090 | -76.11550 | 34713 ft | 429 kts | 306° |
| 2026-05-04 00:28 | 45.99908 | -76.14952 | 34903 ft | 429 kts | 306° |
| 2026-05-04 00:28 | 46.01741 | -76.18352 | 35059 ft | 430 kts | 306° |
| 2026-05-04 00:29 | 46.03580 | -76.21755 | 35229 ft | 431 kts | 306° |
| 2026-05-04 00:29 | 46.05428 | -76.25172 | 35396 ft | 432 kts | 306° |
| 2026-05-04 00:29 | 46.07274 | -76.28589 | 35567 ft | 433 kts | 306° |
| 2026-05-04 00:29 | 46.09118 | -76.32006 | 35723 ft | 433 kts | 306° |
| 2026-05-04 00:30 | 46.12823 | -76.38885 | 35770 ft | 433 kts | 306° |
| 2026-05-04 00:30 | 46.16503 | -76.45733 | 35777 ft | 432 kts | 306° |
| 2026-05-04 00:31 | 46.20185 | -76.52600 | 35767 ft | 433 kts | 306° |
| 2026-05-04 00:31 | 46.23866 | -76.59483 | 35765 ft | 433 kts | 306° |
| 2026-05-04 00:32 | 46.27546 | -76.66383 | 35762 ft | 433 kts | 306° |
| 2026-05-04 00:32 | 46.31217 | -76.73281 | 35767 ft | 433 kts | 306° |
| 2026-05-04 00:33 | 46.36709 | -76.83634 | 35766 ft | 432 kts | 306° |
| 2026-05-04 00:34 | 46.40341 | -76.90501 | 35763 ft | 432 kts | 306° |
| 2026-05-04 00:34 | 46.43995 | -76.97427 | 35778 ft | 432 kts | 305° |
| 2026-05-04 00:35 | 46.47654 | -77.04381 | 35783 ft | 434 kts | 305° |
| 2026-05-04 00:35 | 46.51311 | -77.11347 | 35764 ft | 433 kts | 305° |
| 2026-05-04 00:36 | 46.54957 | -77.18311 | 35771 ft | 433 kts | 305° |
| 2026-05-04 00:36 | 46.58596 | -77.25279 | 35768 ft | 433 kts | 305° |
| 2026-05-04 00:37 | 46.62237 | -77.32267 | 35767 ft | 433 kts | 305° |
| 2026-05-04 00:37 | 46.65873 | -77.39263 | 35768 ft | 433 kts | 305° |
| 2026-05-04 00:38 | 46.69507 | -77.46274 | 35769 ft | 433 kts | 305° |
| 2026-05-04 00:38 | 46.73138 | -77.53296 | 35770 ft | 434 kts | 305° |
| 2026-05-04 00:39 | 46.76775 | -77.60347 | 35768 ft | 435 kts | 305° |
| 2026-05-04 00:39 | 46.80404 | -77.67402 | 35763 ft | 434 kts | 305° |
| 2026-05-04 00:40 | 46.84003 | -77.74416 | 35772 ft | 434 kts | 305° |
| 2026-05-04 00:40 | 46.87619 | -77.81480 | 35771 ft | 434 kts | 305° |
| 2026-05-04 00:41 | 46.91228 | -77.88549 | 35770 ft | 433 kts | 304° |
| 2026-05-04 00:41 | 46.94831 | -77.95624 | 35771 ft | 434 kts | 304° |
| 2026-05-04 00:42 | 46.98435 | -78.02720 | 35772 ft | 434 kts | 304° |
| 2026-05-04 00:42 | 47.02037 | -78.09829 | 35771 ft | 434 kts | 304° |
| 2026-05-04 00:43 | 47.05630 | -78.16940 | 35768 ft | 434 kts | 304° |
| 2026-05-04 00:43 | 47.09213 | -78.24048 | 35768 ft | 434 kts | 304° |
| 2026-05-04 00:44 | 47.12795 | -78.31173 | 35763 ft | 434 kts | 304° |
| 2026-05-04 00:44 | 47.16349 | -78.38261 | 35764 ft | 434 kts | 304° |
| 2026-05-04 00:45 | 47.19915 | -78.45390 | 35763 ft | 432 kts | 304° |
| 2026-05-04 00:45 | 47.23473 | -78.52522 | 35781 ft | 432 kts | 304° |
| 2026-05-04 00:46 | 47.27037 | -78.59685 | 35768 ft | 434 kts | 304° |
| 2026-05-04 00:46 | 47.29998 | -78.65650 | 35763 ft | 434 kts | 304° |
| 2026-05-04 00:47 | 47.33565 | -78.72854 | 35759 ft | 434 kts | 304° |
| 2026-05-04 00:47 | 47.37116 | -78.80042 | 35759 ft | 432 kts | 304° |
| 2026-05-04 00:48 | 47.40651 | -78.87217 | 35760 ft | 432 kts | 304° |
| 2026-05-04 00:48 | 47.44178 | -78.94396 | 35755 ft | 432 kts | 304° |
| 2026-05-04 00:49 | 47.47700 | -79.01582 | 35761 ft | 432 kts | 304° |
| 2026-05-04 00:49 | 47.51219 | -79.08783 | 35760 ft | 433 kts | 304° |
| 2026-05-04 00:50 | 47.54744 | -79.16013 | 35750 ft | 433 kts | 303° |
| 2026-05-04 00:50 | 47.58260 | -79.23245 | 35749 ft | 433 kts | 303° |
| 2026-05-04 00:51 | 47.61747 | -79.30436 | 35742 ft | 432 kts | 303° |
| 2026-05-04 00:51 | 47.65278 | -79.37735 | 35738 ft | 432 kts | 303° |
| 2026-05-04 00:52 | 47.68755 | -79.44943 | 35728 ft | 432 kts | 303° |
| 2026-05-04 00:52 | 47.72245 | -79.52198 | 35731 ft | 431 kts | 303° |
| 2026-05-04 00:53 | 47.75722 | -79.59444 | 35729 ft | 431 kts | 303° |
| 2026-05-04 00:53 | 47.79203 | -79.66718 | 35716 ft | 433 kts | 303° |
| 2026-05-04 00:54 | 47.82687 | -79.74017 | 35706 ft | 432 kts | 303° |
| 2026-05-04 00:54 | 47.86165 | -79.81324 | 35697 ft | 432 kts | 303° |
| 2026-05-04 00:55 | 47.89634 | -79.88631 | 35684 ft | 431 kts | 303° |
| 2026-05-04 00:55 | 47.93099 | -79.95950 | 35687 ft | 431 kts | 303° |
| 2026-05-04 00:56 | 47.96532 | -80.03218 | 35672 ft | 431 kts | 303° |
| 2026-05-04 00:56 | 47.99982 | -80.10545 | 35671 ft | 431 kts | 303° |
| 2026-05-04 00:57 | 48.03431 | -80.17888 | 35676 ft | 433 kts | 303° |
| 2026-05-04 00:57 | 48.06889 | -80.25269 | 35663 ft | 433 kts | 303° |
| 2026-05-04 00:58 | 48.10332 | -80.32640 | 35660 ft | 432 kts | 303° |
| 2026-05-04 00:58 | 48.13771 | -80.40022 | 35661 ft | 432 kts | 303° |
| 2026-05-04 00:59 | 48.17213 | -80.47431 | 35660 ft | 432 kts | 303° |
| 2026-05-04 00:59 | 48.20641 | -80.54828 | 35659 ft | 432 kts | 303° |
| 2026-05-04 01:00 | 48.24065 | -80.62238 | 35656 ft | 431 kts | 303° |
| 2026-05-04 01:00 | 48.27447 | -80.69576 | 35659 ft | 430 kts | 303° |
| 2026-05-04 01:01 | 48.30853 | -80.76989 | 35664 ft | 432 kts | 303° |
| 2026-05-04 01:01 | 48.34267 | -80.84437 | 35653 ft | 433 kts | 303° |
| 2026-05-04 01:02 | 48.37679 | -80.91901 | 35652 ft | 433 kts | 303° |
| 2026-05-04 01:02 | 48.41084 | -80.99371 | 35648 ft | 433 kts | 303° |
| 2026-05-04 01:03 | 48.44483 | -81.06849 | 35651 ft | 433 kts | 303° |
| 2026-05-04 01:03 | 48.47877 | -81.14336 | 35655 ft | 433 kts | 303° |
| 2026-05-04 01:04 | 48.51268 | -81.21837 | 35659 ft | 433 kts | 303° |
| 2026-05-04 01:04 | 48.54652 | -81.29344 | 35637 ft | 433 kts | 302° |
| 2026-05-04 01:05 | 48.58010 | -81.36813 | 35638 ft | 431 kts | 303° |
| 2026-05-04 01:05 | 48.61373 | -81.44315 | 35635 ft | 431 kts | 303° |
| 2026-05-04 01:06 | 48.64736 | -81.51838 | 35640 ft | 431 kts | 303° |
| 2026-05-04 01:06 | 48.68086 | -81.59351 | 35652 ft | 431 kts | 303° |
| 2026-05-04 01:07 | 48.71440 | -81.66897 | 35652 ft | 431 kts | 302° |
| 2026-05-04 01:07 | 48.74760 | -81.74385 | 35650 ft | 431 kts | 303° |
| 2026-05-04 01:08 | 48.77533 | -81.80657 | 35651 ft | 430 kts | 303° |
| 2026-05-04 01:08 | 48.80255 | -81.86825 | 35659 ft | 431 kts | 303° |
| 2026-05-04 01:09 | 48.83586 | -81.94397 | 35653 ft | 432 kts | 303° |
| 2026-05-04 01:09 | 48.86918 | -82.01988 | 35660 ft | 432 kts | 302° |
| 2026-05-04 01:10 | 48.90242 | -82.09586 | 35652 ft | 432 kts | 302° |
| 2026-05-04 01:10 | 48.93557 | -82.17181 | 35639 ft | 430 kts | 303° |
| 2026-05-04 01:11 | 48.96833 | -82.24706 | 35646 ft | 430 kts | 303° |
| 2026-05-04 01:11 | 49.00131 | -82.32299 | 35642 ft | 430 kts | 303° |
| 2026-05-04 01:12 | 49.03442 | -82.39943 | 35645 ft | 430 kts | 302° |
| 2026-05-04 01:12 | 49.06709 | -82.47508 | 35644 ft | 430 kts | 302° |
| 2026-05-04 01:13 | 49.10000 | -82.55148 | 35639 ft | 430 kts | 303° |
| 2026-05-04 01:13 | 49.13271 | -82.62764 | 35655 ft | 429 kts | 303° |
| 2026-05-04 01:14 | 49.16534 | -82.70382 | 35642 ft | 429 kts | 303° |
| 2026-05-04 01:14 | 49.19796 | -82.78018 | 35639 ft | 429 kts | 302° |
| 2026-05-04 01:15 | 49.23051 | -82.85661 | 35638 ft | 429 kts | 302° |
| 2026-05-04 01:15 | 49.25554 | -82.93854 | 35665 ft | 426 kts | 290° |
| 2026-05-04 01:16 | 49.27609 | -83.02361 | 35643 ft | 425 kts | 290° |
| 2026-05-04 01:16 | 49.29632 | -83.10889 | 35638 ft | 426 kts | 290° |
| 2026-05-04 01:17 | 49.31645 | -83.19430 | 35642 ft | 426 kts | 290° |
| 2026-05-04 01:17 | 49.33642 | -83.27934 | 35630 ft | 427 kts | 290° |
| 2026-05-04 01:18 | 49.35651 | -83.36526 | 35637 ft | 428 kts | 290° |
| 2026-05-04 01:18 | 49.37654 | -83.45128 | 35639 ft | 427 kts | 290° |
| 2026-05-04 01:19 | 49.39645 | -83.53711 | 35637 ft | 427 kts | 290° |
| 2026-05-04 01:19 | 49.41632 | -83.62313 | 35621 ft | 427 kts | 290° |
| 2026-05-04 01:20 | 49.43611 | -83.70913 | 35620 ft | 427 kts | 290° |
| 2026-05-04 01:20 | 49.45570 | -83.79458 | 35620 ft | 425 kts | 290° |
| 2026-05-04 01:21 | 49.47518 | -83.87997 | 35626 ft | 423 kts | 290° |
| 2026-05-04 01:21 | 49.49462 | -83.96548 | 35623 ft | 423 kts | 290° |
| 2026-05-04 01:22 | 49.51400 | -84.05106 | 35621 ft | 423 kts | 290° |
| 2026-05-04 01:22 | 49.53331 | -84.13669 | 35620 ft | 423 kts | 290° |
| 2026-05-04 01:23 | 49.55253 | -84.22225 | 35620 ft | 422 kts | 290° |
| 2026-05-04 01:23 | 49.57162 | -84.30761 | 35617 ft | 421 kts | 290° |
| 2026-05-04 01:24 | 49.59065 | -84.39302 | 35618 ft | 421 kts | 290° |
| 2026-05-04 01:24 | 49.60963 | -84.47859 | 35618 ft | 421 kts | 290° |
| 2026-05-04 01:25 | 49.62856 | -84.56425 | 35623 ft | 423 kts | 290° |
| 2026-05-04 01:25 | 49.64747 | -84.65021 | 35609 ft | 422 kts | 290° |
| 2026-05-04 01:26 | 49.66613 | -84.73537 | 35616 ft | 421 kts | 290° |
| 2026-05-04 01:26 | 49.68485 | -84.82116 | 35616 ft | 421 kts | 290° |
| 2026-05-04 01:27 | 49.70353 | -84.90710 | 35619 ft | 422 kts | 290° |
| 2026-05-04 01:27 | 49.72211 | -84.99295 | 35626 ft | 421 kts | 290° |
| 2026-05-04 01:28 | 49.74063 | -85.07890 | 35619 ft | 421 kts | 289° |
| 2026-05-04 01:28 | 49.75911 | -85.16502 | 35627 ft | 421 kts | 289° |
| 2026-05-04 01:29 | 49.77748 | -85.25098 | 35620 ft | 421 kts | 289° |
| 2026-05-04 01:29 | 49.79582 | -85.33715 | 35623 ft | 421 kts | 289° |
| 2026-05-04 01:30 | 49.81406 | -85.42324 | 35624 ft | 421 kts | 289° |
| 2026-05-04 01:30 | 49.83228 | -85.50957 | 35617 ft | 420 kts | 289° |
| 2026-05-04 01:31 | 49.85023 | -85.59503 | 35621 ft | 420 kts | 289° |
| 2026-05-04 01:31 | 49.86826 | -85.68117 | 35622 ft | 420 kts | 289° |
| 2026-05-04 01:32 | 49.88621 | -85.76737 | 35620 ft | 420 kts | 289° |
| 2026-05-04 01:32 | 49.90410 | -85.85363 | 35628 ft | 421 kts | 289° |
| 2026-05-04 01:33 | 49.92199 | -85.94021 | 35617 ft | 421 kts | 289° |
| 2026-05-04 01:33 | 49.93676 | -86.01206 | 35623 ft | 420 kts | 289° |
| 2026-05-04 01:34 | 49.95444 | -86.09834 | 35624 ft | 420 kts | 289° |
| 2026-05-04 01:34 | 49.97209 | -86.18486 | 35625 ft | 420 kts | 289° |
| 2026-05-04 01:35 | 49.99249 | -86.28534 | 35623 ft | 420 kts | 289° |
| 2026-05-04 01:35 | 50.00715 | -86.35787 | 35607 ft | 420 kts | 289° |
| 2026-05-04 01:36 | 50.02454 | -86.44425 | 35618 ft | 417 kts | 289° |
| 2026-05-04 01:36 | 50.04181 | -86.53041 | 35624 ft | 417 kts | 289° |
| 2026-05-04 01:37 | 50.05890 | -86.61610 | 35621 ft | 417 kts | 289° |
| 2026-05-04 01:37 | 50.07606 | -86.70243 | 35621 ft | 417 kts | 289° |
| 2026-05-04 01:38 | 50.09312 | -86.78871 | 35622 ft | 417 kts | 289° |
| 2026-05-04 01:38 | 50.11012 | -86.87506 | 35614 ft | 415 kts | 289° |
| 2026-05-04 01:39 | 50.12698 | -86.96105 | 35615 ft | 415 kts | 289° |
| 2026-05-04 01:39 | 50.14376 | -87.04703 | 35615 ft | 415 kts | 289° |
| 2026-05-04 01:40 | 50.16040 | -87.13271 | 35634 ft | 415 kts | 289° |
| 2026-05-04 01:40 | 50.17712 | -87.21915 | 35618 ft | 416 kts | 289° |
| 2026-05-04 01:41 | 50.19377 | -87.30562 | 35613 ft | 415 kts | 288° |
| 2026-05-04 01:41 | 50.21030 | -87.39189 | 35614 ft | 415 kts | 288° |
| 2026-05-04 01:42 | 50.22678 | -87.47830 | 35610 ft | 415 kts | 288° |
| 2026-05-04 01:42 | 50.24319 | -87.56466 | 35612 ft | 415 kts | 288° |
| 2026-05-04 01:43 | 50.25942 | -87.65052 | 35605 ft | 415 kts | 288° |
| 2026-05-04 01:43 | 50.27569 | -87.73700 | 35595 ft | 414 kts | 288° |
| 2026-05-04 01:44 | 50.29186 | -87.82333 | 35602 ft | 413 kts | 288° |
| 2026-05-04 01:44 | 50.30796 | -87.90972 | 35606 ft | 413 kts | 288° |
| 2026-05-04 01:45 | 50.32401 | -87.99622 | 35603 ft | 413 kts | 288° |
| 2026-05-04 01:45 | 50.34795 | -88.12597 | 35602 ft | 414 kts | 288° |
| 2026-05-04 01:46 | 50.36369 | -88.21179 | 35602 ft | 410 kts | 288° |
| 2026-05-04 01:46 | 50.37929 | -88.29726 | 35597 ft | 408 kts | 288° |
| 2026-05-04 01:47 | 50.39483 | -88.38280 | 35591 ft | 408 kts | 288° |
| 2026-05-04 01:47 | 50.41033 | -88.46848 | 35584 ft | 408 kts | 288° |
| 2026-05-04 01:48 | 50.42577 | -88.55426 | 35570 ft | 409 kts | 288° |
| 2026-05-04 01:48 | 50.44117 | -88.64030 | 35569 ft | 409 kts | 287° |
| 2026-05-04 01:49 | 50.45637 | -88.72553 | 35563 ft | 404 kts | 287° |
| 2026-05-04 01:49 | 50.47145 | -88.81051 | 35561 ft | 404 kts | 287° |
| 2026-05-04 01:50 | 50.48648 | -88.89557 | 35556 ft | 404 kts | 287° |
| 2026-05-04 01:50 | 50.50144 | -88.98070 | 35559 ft | 404 kts | 287° |
| 2026-05-04 01:51 | 50.51634 | -89.06592 | 35569 ft | 404 kts | 287° |
| 2026-05-04 01:51 | 50.53110 | -89.15071 | 35562 ft | 400 kts | 287° |
| 2026-05-04 01:52 | 50.54558 | -89.23428 | 35567 ft | 399 kts | 287° |
| 2026-05-04 01:52 | 50.56011 | -89.31851 | 35558 ft | 399 kts | 287° |
| 2026-05-04 01:53 | 50.57458 | -89.40284 | 35558 ft | 399 kts | 286° |
| 2026-05-04 01:53 | 50.58898 | -89.48717 | 35559 ft | 399 kts | 286° |
| 2026-05-04 01:54 | 50.60332 | -89.57154 | 35552 ft | 399 kts | 286° |
| 2026-05-04 01:54 | 50.61759 | -89.65594 | 35543 ft | 399 kts | 286° |
| 2026-05-04 01:55 | 50.63181 | -89.74047 | 35545 ft | 399 kts | 286° |
| 2026-05-04 01:55 | 50.64595 | -89.82487 | 35544 ft | 399 kts | 286° |
| 2026-05-04 01:56 | 50.66008 | -89.90969 | 35547 ft | 401 kts | 286° |
| 2026-05-04 01:56 | 50.67419 | -89.99478 | 35537 ft | 402 kts | 285° |
| 2026-05-04 01:57 | 50.68811 | -90.07913 | 35533 ft | 397 kts | 285° |
| 2026-05-04 01:57 | 50.70196 | -90.16345 | 35539 ft | 397 kts | 285° |
| 2026-05-04 01:58 | 50.71575 | -90.24789 | 35526 ft | 397 kts | 285° |
| 2026-05-04 01:58 | 50.72946 | -90.33226 | 35526 ft | 397 kts | 285° |
| 2026-05-04 01:59 | 50.74305 | -90.41629 | 35520 ft | 397 kts | 285° |
| 2026-05-04 01:59 | 50.75664 | -90.50074 | 35512 ft | 397 kts | 285° |
| 2026-05-04 02:00 | 50.77019 | -90.58539 | 35513 ft | 397 kts | 285° |
| 2026-05-04 02:00 | 50.78365 | -90.66987 | 35513 ft | 397 kts | 284° |
| 2026-05-04 02:01 | 50.79709 | -90.75467 | 35504 ft | 397 kts | 284° |
| 2026-05-04 02:01 | 50.81044 | -90.83937 | 35504 ft | 397 kts | 284° |
| 2026-05-04 02:02 | 50.82365 | -90.92360 | 35500 ft | 397 kts | 284° |
| 2026-05-04 02:02 | 50.83689 | -91.00845 | 35493 ft | 397 kts | 284° |
| 2026-05-04 02:03 | 50.85005 | -91.09324 | 35495 ft | 397 kts | 284° |
| 2026-05-04 02:03 | 50.86315 | -91.17807 | 35494 ft | 397 kts | 284° |
| 2026-05-04 02:04 | 50.87618 | -91.26296 | 35500 ft | 398 kts | 284° |
| 2026-05-04 02:04 | 50.88924 | -91.34840 | 35481 ft | 399 kts | 284° |
| 2026-05-04 02:05 | 50.90224 | -91.43393 | 35469 ft | 399 kts | 283° |
| 2026-05-04 02:05 | 50.91515 | -91.51933 | 35467 ft | 398 kts | 283° |
| 2026-05-04 02:06 | 50.92799 | -91.60475 | 35467 ft | 398 kts | 283° |
| 2026-05-04 02:06 | 50.94068 | -91.68960 | 35468 ft | 398 kts | 283° |
| 2026-05-04 02:07 | 50.95340 | -91.77515 | 35464 ft | 398 kts | 283° |
| 2026-05-04 02:07 | 50.96606 | -91.86073 | 35456 ft | 398 kts | 283° |
| 2026-05-04 02:08 | 50.97865 | -91.94632 | 35447 ft | 398 kts | 283° |
| 2026-05-04 02:08 | 50.99119 | -92.03208 | 35450 ft | 398 kts | 283° |
| 2026-05-04 02:09 | 51.00364 | -92.11763 | 35440 ft | 398 kts | 283° |
| 2026-05-04 02:09 | 51.01595 | -92.20271 | 35439 ft | 398 kts | 283° |
| 2026-05-04 02:10 | 51.02828 | -92.28841 | 35439 ft | 398 kts | 283° |
| 2026-05-04 02:10 | 51.04055 | -92.37420 | 35423 ft | 398 kts | 283° |
| 2026-05-04 02:11 | 51.05279 | -92.46023 | 35433 ft | 400 kts | 283° |
| 2026-05-04 02:11 | 51.06499 | -92.54651 | 35433 ft | 400 kts | 283° |
| 2026-05-04 02:12 | 51.07715 | -92.63288 | 35426 ft | 400 kts | 283° |
| 2026-05-04 02:12 | 51.08924 | -92.71916 | 35428 ft | 400 kts | 283° |
| 2026-05-04 02:13 | 51.10128 | -92.80549 | 35424 ft | 400 kts | 283° |
| 2026-05-04 02:13 | 51.11325 | -92.89186 | 35422 ft | 400 kts | 283° |
| 2026-05-04 02:14 | 51.12515 | -92.97823 | 35415 ft | 399 kts | 283° |
| 2026-05-04 02:14 | 51.13693 | -93.06415 | 35403 ft | 399 kts | 283° |
| 2026-05-04 02:15 | 51.14879 | -93.15116 | 35406 ft | 399 kts | 282° |
| 2026-05-04 02:15 | 51.16043 | -93.23706 | 35398 ft | 399 kts | 282° |
| 2026-05-04 02:16 | 51.17210 | -93.32362 | 35394 ft | 400 kts | 282° |
| 2026-05-04 02:16 | 51.18368 | -93.41005 | 35396 ft | 399 kts | 282° |
| 2026-05-04 02:17 | 51.19519 | -93.49648 | 35389 ft | 399 kts | 282° |
| 2026-05-04 02:17 | 51.20665 | -93.58298 | 35385 ft | 399 kts | 282° |
| 2026-05-04 02:18 | 51.21806 | -93.66959 | 35383 ft | 399 kts | 282° |
| 2026-05-04 02:18 | 51.22658 | -93.75686 | 35339 ft | 399 kts | 279° |
| 2026-05-04 02:19 | 51.23466 | -93.84448 | 35325 ft | 399 kts | 279° |
| 2026-05-04 02:19 | 51.24296 | -93.93217 | 35340 ft | 399 kts | 279° |
| 2026-05-04 02:20 | 51.25122 | -94.01966 | 35346 ft | 399 kts | 279° |
| 2026-05-04 02:20 | 51.25942 | -94.10717 | 35352 ft | 399 kts | 279° |
| 2026-05-04 02:21 | 51.26758 | -94.19488 | 35376 ft | 401 kts | 279° |
| 2026-05-04 02:21 | 51.27567 | -94.28264 | 35380 ft | 402 kts | 279° |
| 2026-05-04 02:22 | 51.28374 | -94.37097 | 35376 ft | 402 kts | 279° |
| 2026-05-04 02:22 | 51.29176 | -94.45942 | 35370 ft | 402 kts | 279° |
| 2026-05-04 02:23 | 51.29837 | -94.53304 | 35370 ft | 402 kts | 279° |
| 2026-05-04 02:23 | 51.30627 | -94.62159 | 35371 ft | 402 kts | 279° |
| 2026-05-04 02:24 | 51.31409 | -94.71007 | 35370 ft | 402 kts | 279° |
| 2026-05-04 02:24 | 51.32185 | -94.79862 | 35378 ft | 402 kts | 279° |
| 2026-05-04 02:25 | 51.32955 | -94.88731 | 35379 ft | 402 kts | 278° |
| 2026-05-04 02:25 | 51.33718 | -94.97599 | 35378 ft | 402 kts | 278° |
| 2026-05-04 02:26 | 51.34474 | -95.06469 | 35375 ft | 403 kts | 278° |
| 2026-05-04 02:26 | 51.35220 | -95.15297 | 35374 ft | 403 kts | 278° |
| 2026-05-04 02:27 | 51.35963 | -95.24171 | 35380 ft | 403 kts | 278° |
| 2026-05-04 02:27 | 51.36700 | -95.33064 | 35375 ft | 403 kts | 278° |
| 2026-05-04 02:28 | 51.37430 | -95.41951 | 35380 ft | 403 kts | 278° |
| 2026-05-04 02:28 | 51.38154 | -95.50849 | 35380 ft | 403 kts | 278° |
| 2026-05-04 02:29 | 51.38871 | -95.59753 | 35381 ft | 403 kts | 278° |
| 2026-05-04 02:29 | 51.39582 | -95.68661 | 35379 ft | 403 kts | 278° |
| 2026-05-04 02:30 | 51.40281 | -95.77503 | 35362 ft | 403 kts | 278° |
| 2026-05-04 02:30 | 51.40977 | -95.86400 | 35374 ft | 402 kts | 278° |
| 2026-05-04 02:31 | 51.41664 | -95.95272 | 35382 ft | 402 kts | 278° |
| 2026-05-04 02:31 | 51.42346 | -96.04172 | 35392 ft | 404 kts | 278° |
| 2026-05-04 02:32 | 51.43029 | -96.13169 | 35385 ft | 408 kts | 278° |
| 2026-05-04 02:32 | 51.43706 | -96.22192 | 35383 ft | 408 kts | 278° |
| 2026-05-04 02:33 | 51.44377 | -96.31214 | 35382 ft | 408 kts | 278° |
| 2026-05-04 02:33 | 51.45040 | -96.40243 | 35378 ft | 408 kts | 278° |
| 2026-05-04 02:34 | 51.45697 | -96.49267 | 35378 ft | 408 kts | 278° |
| 2026-05-04 02:34 | 51.46347 | -96.58311 | 35382 ft | 408 kts | 278° |
| 2026-05-04 02:35 | 51.46990 | -96.67347 | 35382 ft | 408 kts | 278° |
| 2026-05-04 02:35 | 51.47627 | -96.76386 | 35366 ft | 408 kts | 278° |
| 2026-05-04 02:36 | 51.48251 | -96.85364 | 35381 ft | 407 kts | 278° |
| 2026-05-04 02:36 | 51.48872 | -96.94398 | 35373 ft | 407 kts | 278° |
| 2026-05-04 02:37 | 51.49487 | -97.03446 | 35373 ft | 407 kts | 277° |
| 2026-05-04 02:37 | 51.50095 | -97.12491 | 35373 ft | 408 kts | 277° |
| 2026-05-04 02:38 | 51.50697 | -97.21543 | 35371 ft | 408 kts | 277° |
| 2026-05-04 02:38 | 51.51290 | -97.30585 | 35365 ft | 407 kts | 277° |
| 2026-05-04 02:39 | 51.51876 | -97.39621 | 35375 ft | 407 kts | 277° |
| 2026-05-04 02:39 | 51.52455 | -97.48659 | 35379 ft | 407 kts | 277° |
| 2026-05-04 02:40 | 51.53027 | -97.57701 | 35380 ft | 407 kts | 277° |
| 2026-05-04 02:40 | 51.53590 | -97.66702 | 35381 ft | 407 kts | 277° |
| 2026-05-04 02:41 | 51.54148 | -97.75751 | 35371 ft | 408 kts | 277° |
| 2026-05-04 02:41 | 51.54702 | -97.84832 | 35397 ft | 409 kts | 277° |
| 2026-05-04 02:42 | 51.55251 | -97.93956 | 35392 ft | 412 kts | 277° |
| 2026-05-04 02:42 | 51.55795 | -98.03131 | 35390 ft | 412 kts | 277° |
| 2026-05-04 02:43 | 51.56332 | -98.12303 | 35399 ft | 412 kts | 277° |
| 2026-05-04 02:43 | 51.56863 | -98.21489 | 35386 ft | 412 kts | 277° |
| 2026-05-04 02:44 | 51.57387 | -98.30685 | 35399 ft | 414 kts | 277° |
| 2026-05-04 02:44 | 51.57904 | -98.39897 | 35412 ft | 414 kts | 277° |
| 2026-05-04 02:45 | 51.58412 | -98.49062 | 35415 ft | 414 kts | 277° |
| 2026-05-04 02:45 | 51.58915 | -98.58287 | 35418 ft | 414 kts | 277° |
| 2026-05-04 02:46 | 51.59412 | -98.67516 | 35423 ft | 414 kts | 277° |
| 2026-05-04 02:46 | 51.59902 | -98.76750 | 35432 ft | 415 kts | 277° |
| 2026-05-04 02:47 | 51.60384 | -98.85999 | 35433 ft | 415 kts | 277° |
| 2026-05-04 02:47 | 51.60860 | -98.95257 | 35446 ft | 415 kts | 277° |
| 2026-05-04 02:48 | 51.61329 | -99.04519 | 35447 ft | 415 kts | 277° |
| 2026-05-04 02:48 | 51.61791 | -99.13793 | 35458 ft | 415 kts | 277° |
| 2026-05-04 02:49 | 51.62245 | -99.23062 | 35458 ft | 415 kts | 277° |
| 2026-05-04 02:49 | 51.62689 | -99.32281 | 35472 ft | 415 kts | 276° |
| 2026-05-04 02:50 | 51.63129 | -99.41555 | 35473 ft | 416 kts | 276° |
| 2026-05-04 02:50 | 51.63562 | -99.50831 | 35473 ft | 415 kts | 276° |
| 2026-05-04 02:51 | 51.63987 | -99.60119 | 35475 ft | 416 kts | 276° |
| 2026-05-04 02:51 | 51.64405 | -99.69400 | 35469 ft | 416 kts | 276° |
| 2026-05-04 02:52 | 51.64817 | -99.78693 | 35480 ft | 417 kts | 277° |
| 2026-05-04 02:52 | 51.65221 | -99.88010 | 35485 ft | 417 kts | 277° |
| 2026-05-04 02:53 | 51.65618 | -99.97330 | 35496 ft | 417 kts | 276° |
| 2026-05-04 02:53 | 51.66006 | -100.06594 | 35496 ft | 417 kts | 276° |
| 2026-05-04 02:54 | 51.66389 | -100.15928 | 35502 ft | 417 kts | 276° |
| 2026-05-04 02:54 | 51.66764 | -100.25252 | 35496 ft | 417 kts | 276° |
| 2026-05-04 02:55 | 51.67313 | -100.39232 | 35508 ft | 417 kts | 276° |
| 2026-05-04 02:56 | 51.67670 | -100.48560 | 35510 ft | 417 kts | 276° |
| 2026-05-04 02:56 | 51.68019 | -100.57887 | 35518 ft | 417 kts | 276° |
| 2026-05-04 02:57 | 51.68362 | -100.67214 | 35522 ft | 417 kts | 276° |
| 2026-05-04 02:57 | 51.68699 | -100.76539 | 35523 ft | 416 kts | 276° |
| 2026-05-04 02:58 | 51.69029 | -100.85851 | 35534 ft | 416 kts | 276° |
| 2026-05-04 02:58 | 51.69350 | -100.95117 | 35552 ft | 416 kts | 276° |
| 2026-05-04 02:59 | 51.69666 | -101.04424 | 35556 ft | 416 kts | 276° |
| 2026-05-04 02:59 | 51.69975 | -101.13746 | 35569 ft | 416 kts | 276° |
| 2026-05-04 03:00 | 51.70278 | -101.23075 | 35549 ft | 417 kts | 276° |
| 2026-05-04 03:00 | 51.70574 | -101.32421 | 35593 ft | 418 kts | 276° |
| 2026-05-04 03:01 | 51.70836 | -101.41767 | 35590 ft | 419 kts | 272° |
| 2026-05-04 03:01 | 51.70754 | -101.51177 | 35611 ft | 420 kts | 273° |
| 2026-05-04 03:02 | 51.70715 | -101.60576 | 35610 ft | 419 kts | 273° |
| 2026-05-04 03:02 | 51.70680 | -101.69986 | 35616 ft | 422 kts | 273° |
| 2026-05-04 03:03 | 51.70639 | -101.79437 | 35626 ft | 420 kts | 273° |
| 2026-05-04 03:03 | 51.70591 | -101.88788 | 35631 ft | 420 kts | 273° |
| 2026-05-04 03:04 | 51.70535 | -101.98208 | 35641 ft | 420 kts | 273° |
| 2026-05-04 03:04 | 51.70472 | -102.07621 | 35643 ft | 420 kts | 273° |
| 2026-05-04 03:05 | 51.70401 | -102.17042 | 35649 ft | 420 kts | 273° |
| 2026-05-04 03:05 | 51.70322 | -102.26448 | 35648 ft | 419 kts | 273° |
| 2026-05-04 03:06 | 51.70236 | -102.35837 | 35657 ft | 419 kts | 273° |
| 2026-05-04 03:06 | 51.70143 | -102.45232 | 35658 ft | 419 kts | 273° |
| 2026-05-04 03:07 | 51.70042 | -102.54612 | 35668 ft | 419 kts | 273° |
| 2026-05-04 03:07 | 51.69934 | -102.64013 | 35670 ft | 419 kts | 272° |
| 2026-05-04 03:08 | 51.69818 | -102.73402 | 35676 ft | 419 kts | 273° |
| 2026-05-04 03:08 | 51.69695 | -102.82785 | 35684 ft | 418 kts | 272° |
| 2026-05-04 03:09 | 51.69564 | -102.92167 | 35694 ft | 418 kts | 272° |
| 2026-05-04 03:09 | 51.69450 | -102.99964 | 35693 ft | 418 kts | 272° |
| 2026-05-04 03:10 | 51.69305 | -103.09345 | 35711 ft | 419 kts | 272° |
| 2026-05-04 03:10 | 51.69154 | -103.18727 | 35685 ft | 419 kts | 272° |
| 2026-05-04 03:11 | 51.68995 | -103.28086 | 35714 ft | 417 kts | 272° |
| 2026-05-04 03:11 | 51.68829 | -103.37419 | 35718 ft | 417 kts | 272° |
| 2026-05-04 03:12 | 51.68657 | -103.46695 | 35731 ft | 417 kts | 272° |
| 2026-05-04 03:12 | 51.68476 | -103.56033 | 35733 ft | 417 kts | 272° |
| 2026-05-04 03:13 | 51.68287 | -103.65386 | 35732 ft | 417 kts | 272° |
| 2026-05-04 03:13 | 51.68092 | -103.74712 | 35739 ft | 416 kts | 272° |
| 2026-05-04 03:14 | 51.67890 | -103.84025 | 35743 ft | 416 kts | 272° |
| 2026-05-04 03:14 | 51.67680 | -103.93336 | 35755 ft | 416 kts | 272° |
| 2026-05-04 03:15 | 51.67463 | -104.02646 | 35752 ft | 416 kts | 272° |
| 2026-05-04 03:15 | 51.67240 | -104.11899 | 35781 ft | 416 kts | 272° |
| 2026-05-04 03:16 | 51.67007 | -104.21252 | 35766 ft | 420 kts | 272° |
| 2026-05-04 03:16 | 51.66765 | -104.30651 | 35768 ft | 420 kts | 272° |
| 2026-05-04 03:17 | 51.66516 | -104.40059 | 35772 ft | 420 kts | 272° |
| 2026-05-04 03:17 | 51.66259 | -104.49463 | 35770 ft | 420 kts | 272° |
| 2026-05-04 03:18 | 51.65995 | -104.58862 | 35768 ft | 420 kts | 272° |
| 2026-05-04 03:18 | 51.65724 | -104.68257 | 35754 ft | 419 kts | 272° |
| 2026-05-04 03:19 | 51.65445 | -104.77609 | 35770 ft | 418 kts | 272° |
| 2026-05-04 03:19 | 51.65160 | -104.86960 | 35774 ft | 418 kts | 272° |
| 2026-05-04 03:20 | 51.64867 | -104.96308 | 35775 ft | 418 kts | 272° |
| 2026-05-04 03:20 | 51.64567 | -105.05653 | 35777 ft | 418 kts | 272° |
| 2026-05-04 03:21 | 51.64262 | -105.14944 | 35739 ft | 418 kts | 272° |
| 2026-05-04 03:21 | 51.63948 | -105.24250 | 35776 ft | 415 kts | 272° |
| 2026-05-04 03:22 | 51.63628 | -105.33521 | 35782 ft | 415 kts | 272° |
| 2026-05-04 03:22 | 51.63301 | -105.42799 | 35779 ft | 415 kts | 272° |
| 2026-05-04 03:23 | 51.62966 | -105.52076 | 35788 ft | 415 kts | 272° |
| 2026-05-04 03:23 | 51.62624 | -105.61352 | 35793 ft | 415 kts | 272° |
| 2026-05-04 03:24 | 51.62276 | -105.70611 | 35798 ft | 413 kts | 272° |
| 2026-05-04 03:24 | 51.61921 | -105.79819 | 35799 ft | 412 kts | 272° |
| 2026-05-04 03:25 | 51.61562 | -105.88975 | 35810 ft | 412 kts | 272° |
| 2026-05-04 03:25 | 51.61194 | -105.98181 | 35812 ft | 412 kts | 272° |
| 2026-05-04 03:26 | 51.60818 | -106.07393 | 35822 ft | 412 kts | 271° |
| 2026-05-04 03:26 | 51.60436 | -106.16590 | 35806 ft | 410 kts | 272° |
| 2026-05-04 03:27 | 51.60050 | -106.25687 | 35826 ft | 407 kts | 272° |
| 2026-05-04 03:27 | 51.59658 | -106.34769 | 35835 ft | 407 kts | 272° |
| 2026-05-04 03:28 | 51.59258 | -106.43856 | 35837 ft | 407 kts | 272° |
| 2026-05-04 03:28 | 51.58852 | -106.52947 | 35828 ft | 407 kts | 272° |
| 2026-05-04 03:29 | 51.58438 | -106.62037 | 35818 ft | 409 kts | 272° |
| 2026-05-04 03:29 | 51.58016 | -106.71144 | 35850 ft | 408 kts | 272° |
| 2026-05-04 03:30 | 51.57591 | -106.80179 | 35843 ft | 407 kts | 272° |
| 2026-05-04 03:30 | 51.57156 | -106.89278 | 35850 ft | 408 kts | 272° |
| 2026-05-04 03:31 | 51.56715 | -106.98352 | 35855 ft | 408 kts | 271° |
| 2026-05-04 03:31 | 51.56266 | -107.07435 | 35858 ft | 408 kts | 271° |
| 2026-05-04 03:32 | 51.55811 | -107.16504 | 35857 ft | 404 kts | 272° |
| 2026-05-04 03:32 | 51.55354 | -107.25475 | 35852 ft | 402 kts | 272° |
| 2026-05-04 03:33 | 51.54889 | -107.34449 | 35856 ft | 403 kts | 272° |
| 2026-05-04 03:33 | 51.54418 | -107.43417 | 35855 ft | 403 kts | 272° |
| 2026-05-04 03:34 | 51.53940 | -107.52386 | 35857 ft | 403 kts | 272° |
| 2026-05-04 03:34 | 51.53456 | -107.61354 | 35821 ft | 401 kts | 272° |
| 2026-05-04 03:35 | 51.52973 | -107.70149 | 35852 ft | 396 kts | 272° |
| 2026-05-04 03:35 | 51.52483 | -107.78961 | 35861 ft | 397 kts | 272° |
| 2026-05-04 03:36 | 51.51987 | -107.87780 | 35866 ft | 397 kts | 272° |
| 2026-05-04 03:36 | 51.51483 | -107.96605 | 35867 ft | 397 kts | 272° |
| 2026-05-04 03:37 | 51.50972 | -108.05420 | 35874 ft | 397 kts | 272° |
| 2026-05-04 03:37 | 51.50457 | -108.14221 | 35868 ft | 394 kts | 272° |
| 2026-05-04 03:38 | 51.49936 | -108.22981 | 35877 ft | 394 kts | 272° |
| 2026-05-04 03:38 | 51.49409 | -108.31748 | 35878 ft | 394 kts | 272° |
| 2026-05-04 03:39 | 51.48875 | -108.40505 | 35888 ft | 394 kts | 272° |
| 2026-05-04 03:39 | 51.48335 | -108.49269 | 35886 ft | 395 kts | 272° |
| 2026-05-04 03:40 | 51.47792 | -108.57971 | 35849 ft | 394 kts | 272° |
| 2026-05-04 03:40 | 51.47239 | -108.66723 | 35903 ft | 395 kts | 272° |
| 2026-05-04 03:41 | 51.46678 | -108.75488 | 35900 ft | 395 kts | 272° |
| 2026-05-04 03:41 | 51.46111 | -108.84248 | 35888 ft | 395 kts | 272° |
| 2026-05-04 03:42 | 51.45538 | -108.93001 | 35879 ft | 395 kts | 272° |
| 2026-05-04 03:42 | 51.44958 | -109.01755 | 35876 ft | 395 kts | 272° |
| 2026-05-04 03:43 | 51.44371 | -109.10529 | 35876 ft | 397 kts | 272° |
| 2026-05-04 03:43 | 51.43774 | -109.19334 | 35868 ft | 397 kts | 271° |
| 2026-05-04 03:44 | 51.43170 | -109.28141 | 35874 ft | 397 kts | 271° |
| 2026-05-04 03:44 | 51.42560 | -109.36945 | 35879 ft | 397 kts | 271° |
| 2026-05-04 03:45 | 51.41944 | -109.45745 | 35892 ft | 397 kts | 271° |
| 2026-05-04 03:45 | 51.41321 | -109.54544 | 35856 ft | 397 kts | 272° |
| 2026-05-04 03:46 | 51.40690 | -109.63357 | 35914 ft | 399 kts | 272° |
| 2026-05-04 03:46 | 51.40051 | -109.72177 | 35926 ft | 399 kts | 271° |
| 2026-05-04 03:47 | 51.39406 | -109.80998 | 35922 ft | 399 kts | 271° |
| 2026-05-04 03:47 | 51.38759 | -109.89757 | 35921 ft | 399 kts | 271° |
| 2026-05-04 03:48 | 51.38102 | -109.98572 | 35925 ft | 399 kts | 271° |
| 2026-05-04 03:48 | 51.37439 | -110.07395 | 35909 ft | 401 kts | 272° |
| 2026-05-04 03:49 | 51.36764 | -110.16292 | 35937 ft | 403 kts | 272° |
| 2026-05-04 03:49 | 51.36083 | -110.25183 | 35933 ft | 402 kts | 272° |
| 2026-05-04 03:50 | 51.35396 | -110.34071 | 35935 ft | 403 kts | 272° |
| 2026-05-04 03:50 | 51.34702 | -110.42958 | 35939 ft | 403 kts | 271° |
| 2026-05-04 03:51 | 51.34001 | -110.51850 | 35892 ft | 403 kts | 271° |
| 2026-05-04 03:51 | 51.33289 | -110.60802 | 35947 ft | 407 kts | 271° |
| 2026-05-04 03:52 | 51.32569 | -110.69764 | 35951 ft | 406 kts | 271° |
| 2026-05-04 03:52 | 51.31842 | -110.78724 | 35954 ft | 406 kts | 271° |
| 2026-05-04 03:53 | 51.31160 | -110.87673 | 35947 ft | 401 kts | 277° |
| 2026-05-04 03:53 | 51.31391 | -110.91955 | 35969 ft | 388 kts | 286° |
| 2026-05-04 03:53 | 51.31732 | -110.96267 | 35934 ft | 392 kts | 284° |
| 2026-05-04 03:54 | 51.32392 | -111.04923 | 35957 ft | 392 kts | 284° |
| 2026-05-04 03:54 | 51.33064 | -111.13583 | 35966 ft | 393 kts | 284° |
| 2026-05-04 03:55 | 51.33733 | -111.22260 | 35958 ft | 393 kts | 284° |
| 2026-05-04 03:55 | 51.34396 | -111.30951 | 35972 ft | 393 kts | 284° |
| 2026-05-04 03:56 | 51.35053 | -111.39640 | 35972 ft | 393 kts | 284° |
| 2026-05-04 03:56 | 51.35704 | -111.48332 | 35985 ft | 393 kts | 284° |
| 2026-05-04 03:57 | 51.36241 | -111.55559 | 35939 ft | 393 kts | 284° |
| 2026-05-04 03:57 | 51.36878 | -111.64239 | 35971 ft | 393 kts | 284° |
| 2026-05-04 03:58 | 51.37823 | -111.77269 | 35977 ft | 393 kts | 284° |
| 2026-05-04 03:58 | 51.38440 | -111.85913 | 35961 ft | 381 kts | 284° |
| 2026-05-04 03:59 | 51.38736 | -111.90069 | 35749 ft | 371 kts | 285° |
| 2026-05-04 03:59 | 51.39022 | -111.94101 | 35289 ft | 368 kts | 285° |
| 2026-05-04 03:59 | 51.39308 | -111.98164 | 34786 ft | 366 kts | 285° |
| 2026-05-04 03:59 | 51.39592 | -112.02215 | 34312 ft | 364 kts | 285° |
| 2026-05-04 04:00 | 51.39871 | -112.06227 | 33824 ft | 362 kts | 285° |
| 2026-05-04 04:00 | 51.40146 | -112.10220 | 33237 ft | 359 kts | 285° |
| 2026-05-04 04:00 | 51.40417 | -112.14169 | 32792 ft | 355 kts | 285° |
| 2026-05-04 04:00 | 51.40686 | -112.18086 | 32382 ft | 351 kts | 285° |
| 2026-05-04 04:01 | 51.40950 | -112.21951 | 31937 ft | 347 kts | 284° |
| 2026-05-04 04:01 | 51.41210 | -112.25780 | 31502 ft | 344 kts | 284° |
| 2026-05-04 04:01 | 51.41466 | -112.29575 | 31070 ft | 341 kts | 284° |
| 2026-05-04 04:01 | 51.41719 | -112.33336 | 30654 ft | 338 kts | 284° |
| 2026-05-04 04:02 | 51.41969 | -112.37074 | 30248 ft | 335 kts | 284° |
| 2026-05-04 04:02 | 51.42215 | -112.40775 | 29792 ft | 333 kts | 284° |
| 2026-05-04 04:02 | 51.42458 | -112.44440 | 29337 ft | 329 kts | 284° |
| 2026-05-04 04:02 | 51.42698 | -112.48068 | 28936 ft | 325 kts | 284° |
| 2026-05-04 04:03 | 51.42933 | -112.51654 | 28551 ft | 321 kts | 283° |
| 2026-05-04 04:03 | 51.43164 | -112.55191 | 28167 ft | 317 kts | 283° |
| 2026-05-04 04:03 | 51.43391 | -112.58687 | 27794 ft | 313 kts | 283° |
| 2026-05-04 04:03 | 51.43615 | -112.62142 | 27424 ft | 310 kts | 283° |
| 2026-05-04 04:04 | 51.43832 | -112.65514 | 27026 ft | 306 kts | 283° |
| 2026-05-04 04:04 | 51.44048 | -112.68883 | 26708 ft | 302 kts | 283° |
| 2026-05-04 04:04 | 51.44261 | -112.72215 | 26363 ft | 299 kts | 283° |
| 2026-05-04 04:04 | 51.44471 | -112.75516 | 26018 ft | 296 kts | 283° |
| 2026-05-04 04:05 | 51.44678 | -112.78783 | 25679 ft | 293 kts | 283° |
| 2026-05-04 04:05 | 51.44883 | -112.82038 | 25343 ft | 296 kts | 283° |
| 2026-05-04 04:05 | 51.45090 | -112.85344 | 24998 ft | 300 kts | 283° |
| 2026-05-04 04:05 | 51.45298 | -112.88683 | 24653 ft | 301 kts | 283° |
| 2026-05-04 04:06 | 51.45505 | -112.92027 | 24302 ft | 300 kts | 283° |
| 2026-05-04 04:06 | 51.45710 | -112.95344 | 23958 ft | 298 kts | 283° |
| 2026-05-04 04:06 | 51.45913 | -112.98644 | 23631 ft | 297 kts | 283° |
| 2026-05-04 04:06 | 51.46115 | -113.01933 | 23231 ft | 295 kts | 283° |
| 2026-05-04 04:07 | 51.46315 | -113.05193 | 22852 ft | 292 kts | 283° |
| 2026-05-04 04:07 | 51.46511 | -113.08413 | 22517 ft | 289 kts | 283° |
| 2026-05-04 04:07 | 51.46705 | -113.11610 | 22178 ft | 286 kts | 283° |
| 2026-05-04 04:07 | 51.46895 | -113.14758 | 21856 ft | 283 kts | 283° |
| 2026-05-04 04:08 | 51.47083 | -113.17880 | 21484 ft | 280 kts | 283° |
| 2026-05-04 04:08 | 51.47268 | -113.20968 | 21170 ft | 276 kts | 283° |
| 2026-05-04 04:08 | 51.47371 | -113.24048 | 20797 ft | 283 kts | 272° |
| 2026-05-04 04:08 | 51.46820 | -113.27172 | 20360 ft | 303 kts | 253° |
| 2026-05-04 04:09 | 51.45589 | -113.30029 | 19966 ft | 316 kts | 242° |
| 2026-05-04 04:09 | 51.44197 | -113.32809 | 19303 ft | 325 kts | 241° |
| 2026-05-04 04:09 | 51.42776 | -113.35607 | 18703 ft | 329 kts | 240° |
| 2026-05-04 04:09 | 51.41335 | -113.38410 | 18316 ft | 322 kts | 240° |
| 2026-05-04 04:10 | 51.39928 | -113.41131 | 17963 ft | 312 kts | 241° |
| 2026-05-04 04:10 | 51.38561 | -113.43765 | 17653 ft | 303 kts | 241° |
| 2026-05-04 04:10 | 51.37231 | -113.46322 | 17321 ft | 293 kts | 241° |
| 2026-05-04 04:10 | 51.35944 | -113.48793 | 16974 ft | 285 kts | 241° |
| 2026-05-04 04:11 | 51.34680 | -113.51217 | 16513 ft | 282 kts | 241° |
| 2026-05-04 04:11 | 51.33429 | -113.53612 | 16061 ft | 279 kts | 240° |
| 2026-05-04 04:11 | 51.32197 | -113.55972 | 15636 ft | 275 kts | 240° |
| 2026-05-04 04:11 | 51.30977 | -113.58310 | 15108 ft | 274 kts | 239° |
| 2026-05-04 04:12 | 51.29754 | -113.60645 | 14663 ft | 273 kts | 238° |
| 2026-05-04 04:12 | 51.28542 | -113.62958 | 14236 ft | 270 kts | 238° |
| 2026-05-04 04:12 | 51.27347 | -113.65238 | 13855 ft | 267 kts | 238° |
| 2026-05-04 04:12 | 51.26159 | -113.67505 | 13496 ft | 264 kts | 238° |
| 2026-05-04 04:13 | 51.24980 | -113.69752 | 13047 ft | 265 kts | 238° |
| 2026-05-04 04:13 | 51.23798 | -113.72004 | 12621 ft | 265 kts | 238° |
| 2026-05-04 04:13 | 51.22617 | -113.74252 | 12220 ft | 264 kts | 238° |
| 2026-05-04 04:13 | 51.21437 | -113.76495 | 11813 ft | 264 kts | 238° |
| 2026-05-04 04:14 | 51.20252 | -113.78744 | 11386 ft | 265 kts | 237° |
| 2026-05-04 04:14 | 51.19067 | -113.80995 | 11007 ft | 265 kts | 237° |
| 2026-05-04 04:14 | 51.17825 | -113.83187 | 10589 ft | 271 kts | 226° |
| 2026-05-04 04:14 | 51.16122 | -113.84577 | 10199 ft | 284 kts | 199° |
| 2026-05-04 04:15 | 51.14129 | -113.84839 | 9850 ft | 288 kts | 183° |
| 2026-05-04 04:15 | 51.12160 | -113.84833 | 9666 ft | 278 kts | 184° |
| 2026-05-04 04:15 | 51.10246 | -113.84842 | 9422 ft | 273 kts | 184° |
| 2026-05-04 04:15 | 51.08346 | -113.84846 | 9085 ft | 273 kts | 184° |
| 2026-05-04 04:16 | 51.06442 | -113.84846 | 8720 ft | 274 kts | 183° |
| 2026-05-04 04:16 | 51.04519 | -113.84842 | 8245 ft | 280 kts | 182° |
| 2026-05-04 04:16 | 51.02551 | -113.84853 | 7688 ft | 284 kts | 185° |
| 2026-05-04 04:16 | 51.00624 | -113.85397 | 7149 ft | 279 kts | 205° |
| 2026-05-04 04:17 | 50.99138 | -113.87135 | 6738 ft | 259 kts | 237° |
| 2026-05-04 04:17 | 50.98329 | -113.89546 | 6473 ft | 234 kts | 260° |
| 2026-05-04 04:17 | 50.98128 | -113.91890 | 6259 ft | 199 kts | 279° |
| 2026-05-04 04:17 | 50.98351 | -113.93958 | 6084 ft | 184 kts | 296° |
| 2026-05-04 04:18 | 50.98887 | -113.95715 | 5868 ft | 172 kts | 311° |
| 2026-05-04 04:18 | 50.99640 | -113.97098 | 5661 ft | 161 kts | 324° |
| 2026-05-04 04:18 | 51.00512 | -113.98077 | 5489 ft | 146 kts | 337° |
| 2026-05-04 04:18 | 51.01418 | -113.98659 | 5323 ft | 136 kts | 347° |
| 2026-05-04 04:19 | 51.02339 | -113.98948 | 5230 ft | 135 kts | 356° |
| 2026-05-04 04:19 | 51.03274 | -113.99035 | 5150 ft | 135 kts | 1° |
| 2026-05-04 04:19 | 51.04206 | -113.99046 | 5019 ft | 133 kts | 2° |
| 2026-05-04 04:19 | 51.05140 | -113.99043 | 4857 ft | 135 kts | 1° |
| 2026-05-04 04:20 | 51.06083 | -113.99042 | 4683 ft | 136 kts | 1° |
| 2026-05-04 04:20 | 51.07025 | -113.99040 | 4510 ft | 135 kts | 1° |
| 2026-05-04 04:20 | 51.07964 | -113.99036 | 4234 ft | 135 kts | 2° |
| 2026-05-04 04:20 | 51.08914 | -113.99071 | 4000 ft | 138 kts | 4° |
| 2026-05-04 04:21 | 51.09853 | -113.99041 | 3820 ft | 136 kts | 4° |
| 2026-05-04 04:21 | 51.10797 | -113.99044 | 3632 ft | 134 kts | 5° |
| 2026-05-04 04:21 | 51.11677 | -113.99040 | 3567 ft | 107 kts | 0° |
| 2026-05-04 04:21 | 51.12178 | -113.99035 | 3564 ft | 44 kts | 0° |
| 2026-05-04 04:22 | 51.12485 | -113.99035 | 3564 ft | 43 kts | 0° |
| 2026-05-04 04:22 | 51.12774 | -113.99037 | 3564 ft | 37 kts | 360° |
| 2026-05-04 04:22 | 51.12991 | -113.99101 | 3562 ft | 23 kts | 336° |
| 2026-05-04 04:22 | 51.13114 | -113.99208 | 3562 ft | 14 kts | 330° |
| 2026-05-04 04:23 | 51.13159 | -113.99301 | 3558 ft | 11 kts | 275° |
| 2026-05-04 04:23 | 51.13145 | -113.99427 | 3562 ft | 12 kts | 222° |
| 2026-05-04 04:23 | 51.13058 | -113.99446 | 3560 ft | 14 kts | 180° |
| 2026-05-04 04:23 | 51.12958 | -113.99446 | 3562 ft | 15 kts | 180° |
| 2026-05-04 04:24 | 51.12849 | -113.99445 | 3562 ft | 16 kts | 180° |
| 2026-05-04 04:24 | 51.12743 | -113.99447 | 3557 ft | 10 kts | 185° |
| 2026-05-04 04:24 | 51.12701 | -113.99527 | 3560 ft | 11 kts | 265° |
| 2026-05-04 04:24 | 51.12700 | -113.99659 | 3562 ft | 13 kts | 270° |
| 2026-05-04 04:25 | 51.12700 | -113.99809 | 3562 ft | 14 kts | 270° |
| 2026-05-04 04:25 | 51.12701 | -113.99976 | 3562 ft | 16 kts | 270° |
| 2026-05-04 04:25 | 51.12701 | -114.00159 | 3562 ft | 17 kts | 270° |
| 2026-05-04 04:25 | 51.12701 | -114.00358 | 3562 ft | 19 kts | 270° |
| 2026-05-04 04:26 | 51.12701 | -114.00559 | 3562 ft | 13 kts | 270° |
| 2026-05-04 04:26 | 51.12728 | -114.00635 | 3560 ft | 8 kts | 335° |
| 2026-05-04 04:26 | 51.12772 | -114.00641 | 3562 ft | 6 kts | 7° |
| 2026-05-04 04:26 | 51.12821 | -114.00639 | 3562 ft | 7 kts | 360° |
| 2026-05-04 04:27 | 51.12850 | -114.00658 | 3562 ft | 5 kts | 307° |
| 2026-05-04 04:27 | 51.12858 | -114.00706 | 3562 ft | 2 kts | 280° |
| 2026-05-04 04:27 | 51.12860 | -114.00725 | 3562 ft | 2 kts | 280° |
| 2026-05-04 04:27 | 51.12862 | -114.00742 | 3562 ft | 1 kts | 280° |
| 2026-05-04 04:28 | 51.12863 | -114.00747 | 3562 ft | 0 kts | 280° |
| 2026-05-04 04:29 | 51.12863 | -114.00746 | 3562 ft | 0 kts | 280° |
| 2026-05-04 04:36 | 51.12863 | -114.00745 | 3562 ft | 0 kts | 280° |
| 2026-05-04 04:44 | 51.12863 | -114.00744 | 3562 ft | 0 kts | 280° |